createdAt,value
2023-03-05T00:00:54.905Z,5.50
2023-03-05T00:03:21.654Z,5.50
2023-03-05T00:05:48.486Z,5.50
2023-03-05T00:08:15.296Z,5.50
2023-03-05T00:10:42.097Z,5.50
2023-03-05T00:13:08.891Z,5.40
2023-03-05T00:15:41.289Z,5.40
2023-03-05T00:18:08.208Z,5.40
2023-03-05T00:20:35.300Z,5.50
2023-03-05T00:23:02.129Z,5.40
2023-03-05T00:25:28.858Z,5.40
2023-03-05T00:27:55.612Z,5.40
2023-03-05T00:30:22.321Z,5.40
2023-03-05T00:32:49.031Z,5.40
2023-03-05T00:35:15.892Z,5.40
2023-03-05T00:37:42.701Z,5.40
2023-03-05T00:40:10.188Z,5.40
2023-03-05T00:42:38.688Z,5.40
2023-03-05T00:45:07.141Z,5.40
2023-03-05T00:47:34.550Z,5.40
2023-03-05T00:50:01.851Z,5.40
2023-03-05T00:52:28.663Z,5.40
2023-03-05T00:54:55.440Z,5.40
2023-03-05T00:57:22.641Z,5.40
2023-03-05T00:59:49.501Z,5.30
2023-03-05T01:02:16.363Z,5.40
2023-03-05T01:04:45.854Z,5.40
2023-03-05T01:07:13.023Z,5.40
2023-03-05T01:09:39.656Z,5.30
2023-03-05T01:12:06.720Z,5.30
2023-03-05T01:14:34.634Z,5.40
2023-03-05T01:17:01.791Z,5.40
2023-03-05T01:19:28.709Z,5.30
2023-03-05T01:21:55.605Z,5.40
2023-03-05T01:24:22.477Z,5.30
2023-03-05T01:26:49.649Z,5.30
2023-03-05T01:29:16.406Z,5.30
2023-03-05T01:31:43.179Z,5.30
2023-03-05T01:34:09.822Z,5.30
2023-03-05T01:36:36.592Z,5.30
2023-03-05T01:39:03.517Z,5.30
2023-03-05T01:41:30.809Z,5.30
2023-03-05T01:43:58.240Z,5.20
2023-03-05T01:46:28.080Z,5.30
2023-03-05T01:49:21.137Z,5.20
2023-03-05T01:51:50.930Z,5.20
2023-03-05T01:54:18.726Z,5.20
2023-03-05T01:56:47.404Z,5.30
2023-03-05T01:59:14.275Z,5.20
2023-03-05T02:01:42.502Z,5.10
2023-03-05T02:04:10.934Z,5.10
2023-03-05T02:06:39.312Z,5.20
2023-03-05T02:09:06.168Z,5.20
2023-03-05T02:11:33.461Z,5.20
2023-03-05T02:14:00.662Z,5.20
2023-03-05T02:16:35.680Z,5.20
2023-03-05T02:19:04.583Z,5.30
2023-03-05T02:21:41.852Z,5.20
2023-03-05T02:24:10.776Z,5.20
2023-03-05T02:26:37.467Z,5.20
2023-03-05T02:29:05.088Z,5.20
2023-03-05T02:31:31.835Z,5.20
2023-03-05T02:33:58.668Z,5.20
2023-03-05T02:36:26.269Z,5.20
2023-03-05T02:38:56.918Z,5.20
2023-03-05T02:41:24.623Z,5.20
2023-03-05T02:43:51.705Z,5.20
2023-03-05T02:46:18.466Z,5.30
2023-03-05T02:48:45.283Z,5.30
2023-03-05T02:51:13.833Z,5.30
2023-03-05T02:53:42.930Z,5.30
2023-03-05T02:56:10.117Z,5.20
2023-03-05T02:58:36.832Z,5.20
2023-03-05T03:01:03.699Z,5.20
2023-03-05T03:03:30.739Z,5.20
2023-03-05T03:05:57.784Z,5.20
2023-03-05T03:08:24.399Z,5.20
2023-03-05T03:10:51.047Z,5.20
2023-03-05T03:13:18.111Z,5.20
2023-03-05T03:15:44.861Z,5.20
2023-03-05T03:18:11.574Z,5.20
2023-03-05T03:20:39.485Z,5.20
2023-03-05T03:23:06.976Z,5.20
2023-03-05T03:25:36.484Z,5.20
2023-03-05T03:28:03.316Z,5.20
2023-03-05T03:30:30.212Z,5.20
2023-03-05T03:32:56.949Z,5.20
2023-03-05T03:35:23.592Z,5.10
2023-03-05T03:37:50.365Z,5.10
2023-03-05T03:40:17.090Z,5.10
2023-03-05T03:42:43.726Z,5.10
2023-03-05T03:45:12.009Z,5.10
2023-03-05T03:47:38.669Z,5.10
2023-03-05T03:50:05.636Z,5.00
2023-03-05T03:52:32.386Z,5.00
2023-03-05T03:55:01.757Z,5.00
2023-03-05T03:57:29.560Z,5.00
2023-03-05T03:59:56.639Z,5.00
2023-03-05T04:02:23.327Z,5.00
2023-03-05T04:04:50.483Z,5.00
2023-03-05T04:07:17.281Z,5.00
2023-03-05T04:09:44.176Z,5.00
2023-03-05T04:12:11.090Z,5.00
2023-03-05T04:14:37.780Z,5.00
2023-03-05T04:17:04.587Z,5.00
2023-03-05T04:19:31.287Z,5.00
2023-03-05T04:21:59.987Z,5.00
2023-03-05T04:24:26.693Z,5.00
2023-03-05T04:26:53.317Z,5.00
2023-03-05T04:29:20.067Z,5.00
2023-03-05T04:31:46.705Z,5.00
2023-03-05T04:34:13.394Z,5.00
2023-03-05T04:36:40.252Z,5.00
2023-03-05T04:39:06.872Z,4.90
2023-03-05T04:41:33.523Z,4.90
2023-03-05T04:44:00.238Z,4.90
2023-03-05T04:46:26.989Z,4.90
2023-03-05T04:48:53.688Z,4.80
2023-03-05T04:51:20.397Z,4.80
2023-03-05T04:53:47.105Z,4.80
2023-03-05T04:56:13.832Z,4.80
2023-03-05T04:58:40.508Z,4.90
2023-03-05T05:01:07.415Z,4.80
2023-03-05T05:03:34.179Z,4.90
2023-03-05T05:06:01.368Z,4.80
2023-03-05T05:08:28.706Z,4.80
2023-03-05T05:10:56.781Z,4.80
2023-03-05T05:13:23.754Z,4.80
2023-03-05T05:15:50.478Z,4.80
2023-03-05T05:18:17.184Z,4.70
2023-03-05T05:20:44.052Z,4.80
2023-03-05T05:23:10.737Z,4.80
2023-03-05T05:25:37.521Z,4.80
2023-03-05T05:28:04.296Z,4.80
2023-03-05T05:30:31.239Z,4.70
2023-03-05T05:32:57.980Z,4.70
2023-03-05T05:35:24.684Z,4.70
2023-03-05T05:37:51.365Z,4.70
2023-03-05T05:40:18.014Z,4.70
2023-03-05T05:42:45.262Z,4.60
2023-03-05T05:45:11.909Z,4.60
2023-03-05T05:47:38.580Z,4.60
2023-03-05T05:50:05.582Z,4.60
2023-03-05T05:52:32.295Z,4.60
2023-03-05T05:54:58.933Z,4.60
2023-03-05T05:57:25.633Z,4.50
2023-03-05T05:59:53.323Z,4.50
2023-03-05T06:02:20.083Z,4.50
2023-03-05T06:04:47.021Z,4.50
2023-03-05T06:07:13.783Z,4.40
2023-03-05T06:09:40.425Z,4.50
2023-03-05T06:12:07.366Z,4.40
2023-03-05T06:14:34.064Z,4.50
2023-03-05T06:17:00.827Z,4.50
2023-03-05T06:19:27.811Z,4.40
2023-03-05T06:21:54.438Z,4.40
2023-03-05T06:24:22.248Z,4.40
2023-03-05T06:26:49.135Z,4.40
2023-03-05T06:29:15.985Z,4.30
2023-03-05T06:31:42.741Z,4.30
2023-03-05T06:34:10.249Z,4.30
2023-03-05T06:36:36.931Z,4.30
2023-03-05T06:39:04.597Z,4.20
2023-03-05T06:41:31.443Z,4.30
2023-03-05T06:43:59.636Z,4.30
2023-03-05T06:46:27.561Z,4.30
2023-03-05T06:48:57.634Z,4.30
2023-03-05T06:51:28.837Z,4.30
2023-03-05T06:53:59.554Z,4.40
2023-03-05T06:56:26.414Z,4.40
2023-03-05T06:58:53.163Z,4.40
2023-03-05T07:01:20.358Z,4.50
2023-03-05T07:03:51.750Z,4.40
2023-03-05T07:06:18.744Z,4.50
2023-03-05T07:08:45.894Z,4.50
2023-03-05T07:11:13.913Z,4.50
2023-03-05T07:13:40.734Z,4.60
2023-03-05T07:16:08.817Z,4.60
2023-03-05T07:18:35.666Z,4.60
2023-03-05T07:21:03.591Z,4.60
2023-03-05T07:23:30.218Z,4.70
2023-03-05T07:25:57.077Z,4.70
2023-03-05T07:28:23.731Z,4.70
2023-03-05T07:31:04.559Z,4.80
2023-03-05T07:33:32.126Z,4.80
2023-03-05T07:35:58.928Z,4.80
2023-03-05T07:38:25.608Z,4.80
2023-03-05T07:40:52.179Z,4.80
2023-03-05T07:43:19.101Z,4.80
2023-03-05T07:45:46.131Z,4.90
2023-03-05T07:48:14.315Z,5.00
2023-03-05T07:50:41.593Z,5.00
2023-03-05T07:53:08.773Z,5.00
2023-03-05T07:55:35.712Z,5.00
2023-03-05T07:58:02.518Z,5.10
2023-03-05T08:00:30.166Z,5.00
2023-03-05T08:02:56.825Z,5.00
2023-03-05T08:05:23.476Z,5.00
2023-03-05T08:07:50.125Z,5.00
2023-03-05T08:10:16.936Z,5.10
2023-03-05T08:12:43.577Z,5.10
2023-03-05T08:15:10.496Z,5.10
2023-03-05T08:17:41.419Z,5.10
2023-03-05T08:20:14.058Z,5.10
2023-03-05T08:22:40.803Z,5.10
2023-03-05T08:25:07.985Z,5.20
2023-03-05T08:27:38.082Z,5.20
2023-03-05T08:30:04.917Z,5.10
2023-03-05T08:32:31.878Z,5.10
2023-03-05T08:34:58.682Z,5.20
2023-03-05T08:37:25.681Z,5.20
2023-03-05T08:39:52.599Z,5.10
2023-03-05T08:42:19.233Z,5.10
2023-03-05T08:44:45.877Z,5.00
2023-03-05T08:47:12.538Z,5.00
2023-03-05T08:49:39.272Z,5.10
2023-03-05T08:52:06.181Z,5.10
2023-03-05T08:54:33.556Z,5.10
2023-03-05T08:57:00.281Z,5.20
2023-03-05T08:59:26.949Z,5.30
2023-03-05T09:01:53.629Z,5.30
2023-03-05T09:04:20.477Z,5.30
2023-03-05T09:06:47.213Z,5.40
2023-03-05T09:09:14.129Z,5.40
2023-03-05T09:11:40.755Z,5.50
2023-03-05T09:14:11.503Z,5.50
2023-03-05T09:16:40.496Z,5.60
2023-03-05T09:19:12.745Z,5.70
2023-03-05T09:21:42.706Z,5.70
2023-03-05T09:24:09.762Z,5.80
2023-03-05T09:26:36.804Z,5.90
2023-03-05T09:29:03.561Z,6.00
2023-03-05T09:31:30.407Z,6.10
2023-03-05T09:33:57.101Z,6.10
2023-03-05T09:36:27.791Z,6.20
2023-03-05T09:38:54.623Z,6.20
2023-03-05T09:41:21.247Z,6.10
2023-03-05T09:44:08.789Z,6.00
2023-03-05T09:46:55.370Z,5.90
2023-03-05T09:49:31.208Z,6.00
2023-03-05T09:52:01.751Z,5.90
2023-03-05T09:54:48.689Z,6.00
2023-03-05T09:57:18.345Z,6.10
2023-03-05T09:59:44.989Z,6.10
2023-03-05T10:02:31.625Z,6.10
2023-03-05T10:05:02.588Z,6.00
2023-03-05T10:07:30.802Z,5.90
2023-03-05T10:10:17.998Z,6.00
2023-03-05T10:12:46.588Z,6.00
2023-03-05T10:15:14.782Z,6.00
2023-03-05T10:17:55.263Z,5.90
2023-03-05T10:20:30.878Z,6.00
2023-03-05T10:23:10.528Z,6.00
2023-03-05T10:25:56.084Z,6.00
2023-03-05T10:28:49.303Z,5.90
2023-03-05T10:31:25.266Z,6.00
2023-03-05T10:34:03.974Z,6.00
2023-03-05T10:36:33.705Z,6.20
2023-03-05T10:39:06.510Z,6.20
2023-03-05T10:41:45.188Z,6.40
2023-03-05T10:44:18.688Z,6.50
2023-03-05T10:46:45.921Z,6.60
2023-03-05T10:49:32.525Z,6.70
2023-03-05T10:52:13.567Z,6.60
2023-03-05T10:54:42.751Z,6.70
2023-03-05T10:57:23.585Z,6.70
2023-03-05T10:59:52.137Z,6.70
2023-03-05T11:02:19.816Z,6.70
2023-03-05T11:04:49.580Z,6.60
2023-03-05T11:07:16.204Z,6.70
2023-03-05T11:09:43.826Z,6.70
2023-03-05T11:12:15.672Z,6.70
2023-03-05T11:14:44.459Z,6.90
2023-03-05T11:17:25.212Z,6.90
2023-03-05T11:19:52.081Z,7.00
2023-03-05T11:22:20.532Z,6.90
2023-03-05T11:25:07.551Z,6.90
2023-03-05T11:27:55.281Z,6.80
2023-03-05T11:30:21.972Z,6.80
2023-03-05T11:32:48.660Z,6.80
2023-03-05T11:35:42.036Z,6.90
2023-03-05T11:38:35.286Z,6.90
2023-03-05T11:41:01.976Z,6.80
2023-03-05T11:43:29.647Z,6.70
2023-03-05T11:46:02.267Z,6.60
2023-03-05T11:48:32.192Z,6.60
2023-03-05T11:51:00.804Z,6.50
2023-03-05T11:53:29.433Z,6.50
2023-03-05T11:55:59.250Z,6.50
2023-03-05T11:58:25.966Z,6.60
2023-03-05T12:00:52.667Z,6.60
2023-03-05T12:03:22.094Z,6.70
2023-03-05T12:05:51.210Z,6.80
2023-03-05T12:08:25.649Z,6.90
2023-03-05T12:10:52.681Z,7.20
2023-03-05T12:13:42.460Z,7.30
2023-03-05T12:16:28.222Z,7.50
2023-03-05T12:18:54.861Z,7.70
2023-03-05T12:21:26.595Z,7.90
2023-03-05T12:23:59.160Z,8.00
2023-03-05T12:26:44.498Z,8.00
2023-03-05T12:29:27.198Z,8.00
2023-03-05T12:31:53.937Z,8.30
2023-03-05T12:34:34.944Z,8.40
2023-03-05T12:37:01.566Z,8.50
2023-03-05T12:39:40.501Z,8.70
2023-03-05T12:42:25.927Z,8.90
2023-03-05T12:45:17.008Z,9.30
2023-03-05T12:47:44.595Z,9.40
2023-03-05T12:50:26.783Z,9.60
2023-03-05T12:52:54.121Z,9.50
2023-03-05T12:55:26.601Z,9.10
2023-03-05T12:57:59.411Z,9.20
2023-03-05T13:00:27.833Z,8.80
2023-03-05T13:02:58.575Z,8.70
2023-03-05T13:05:33.580Z,8.50
2023-03-05T13:08:18.479Z,8.40
2023-03-05T13:10:51.376Z,8.30
2023-03-05T13:13:19.566Z,8.50
2023-03-05T13:15:48.332Z,8.50
2023-03-05T13:18:18.866Z,8.60
2023-03-05T13:20:45.859Z,8.60
2023-03-05T13:23:18.607Z,8.50
2023-03-05T13:25:55.546Z,8.30
2023-03-05T13:28:22.266Z,8.20
2023-03-05T13:30:53.017Z,8.20
2023-03-05T13:33:24.717Z,8.00
2023-03-05T13:35:52.998Z,7.80
2023-03-05T13:38:40.311Z,7.40
2023-03-05T13:41:15.987Z,7.30
2023-03-05T13:43:43.650Z,7.10
2023-03-05T13:46:10.324Z,7.10
2023-03-05T13:48:37.017Z,6.80
2023-03-05T13:51:06.935Z,6.60
2023-03-05T13:53:34.117Z,6.60
2023-03-05T13:56:02.222Z,6.60
2023-03-05T13:58:48.069Z,6.70
2023-03-05T14:01:28.680Z,6.70
2023-03-05T14:04:03.126Z,6.90
2023-03-05T14:06:31.103Z,7.00
2023-03-05T14:09:09.000Z,7.10
2023-03-05T14:11:35.861Z,7.00
2023-03-05T14:14:05.999Z,7.10
2023-03-05T14:16:33.703Z,7.10
2023-03-05T14:19:02.178Z,7.10
2023-03-05T14:21:48.751Z,7.10
2023-03-05T14:24:23.512Z,7.10
2023-03-05T14:26:56.445Z,7.00
2023-03-05T14:29:24.486Z,6.80
2023-03-05T14:31:53.218Z,6.80
2023-03-05T14:34:45.985Z,6.80
2023-03-05T14:37:22.269Z,6.70
2023-03-05T14:39:56.502Z,6.80
2023-03-05T14:42:33.965Z,6.70
2023-03-05T14:45:02.245Z,6.70
2023-03-05T14:47:29.064Z,6.80
2023-03-05T14:49:55.807Z,6.90
2023-03-05T14:52:24.097Z,6.80
2023-03-05T14:54:52.674Z,6.80
2023-03-05T14:57:20.999Z,6.70
2023-03-05T14:59:47.754Z,6.60
2023-03-05T15:02:19.198Z,6.60
2023-03-05T15:04:46.490Z,6.60
2023-03-05T15:07:17.768Z,6.50
2023-03-05T15:09:44.752Z,6.50
2023-03-05T15:12:15.672Z,6.50
2023-03-05T15:14:43.474Z,6.40
2023-03-05T15:17:21.389Z,6.40
2023-03-05T15:19:48.425Z,6.40
2023-03-05T15:22:15.626Z,6.40
2023-03-05T15:24:42.942Z,6.40
2023-03-05T15:27:10.940Z,6.30
2023-03-05T15:29:37.708Z,6.30
2023-03-05T15:32:05.603Z,6.20
2023-03-05T15:34:33.778Z,6.20
2023-03-05T15:37:01.051Z,6.20
2023-03-05T15:39:27.763Z,6.20
2023-03-05T15:41:54.617Z,6.20
2023-03-05T15:44:21.669Z,6.00
2023-03-05T15:46:48.371Z,6.00
2023-03-05T15:49:15.177Z,6.00
2023-03-05T15:51:41.856Z,5.90
2023-03-05T15:54:08.647Z,5.90
2023-03-05T15:56:35.349Z,5.90
2023-03-05T15:59:02.220Z,5.90
2023-03-05T16:01:28.971Z,5.90
2023-03-05T16:03:55.687Z,5.90
2023-03-05T16:06:24.334Z,5.90
2023-03-05T16:08:52.386Z,5.90
2023-03-05T16:11:19.802Z,5.80
2023-03-05T16:13:46.784Z,5.80
2023-03-05T16:16:13.738Z,5.70
2023-03-05T16:18:41.852Z,5.70
2023-03-05T16:21:08.850Z,5.80
2023-03-05T16:23:35.555Z,5.70
2023-03-05T16:26:02.382Z,5.60
2023-03-05T16:28:29.032Z,5.70
2023-03-05T16:30:56.652Z,5.60
2023-03-05T16:33:24.262Z,5.60
2023-03-05T16:35:53.292Z,5.60
2023-03-05T16:38:20.085Z,5.60
2023-03-05T16:41:06.748Z,5.60
2023-03-05T16:43:33.833Z,5.60
2023-03-05T16:46:00.529Z,5.60
2023-03-05T16:48:29.086Z,5.60
2023-03-05T16:50:57.829Z,5.60
2023-03-05T16:53:24.509Z,5.50
2023-03-05T16:55:51.176Z,5.50
2023-03-05T16:58:18.013Z,5.50
2023-03-05T17:00:44.736Z,5.40
2023-03-05T17:03:11.714Z,5.40
2023-03-05T17:05:38.849Z,5.40
2023-03-05T17:08:05.843Z,5.40
2023-03-05T17:10:32.986Z,5.40
2023-03-05T17:13:00.863Z,5.40
2023-03-05T17:15:27.547Z,5.30
2023-03-05T17:17:54.195Z,5.40
2023-03-05T17:20:20.911Z,5.40
2023-03-05T17:22:47.750Z,5.40
2023-03-05T17:25:14.415Z,5.40
2023-03-05T17:27:41.180Z,5.30
2023-03-05T17:30:08.352Z,5.40
2023-03-05T17:32:35.253Z,5.30
2023-03-05T17:35:04.383Z,5.30
2023-03-05T17:37:32.158Z,5.20
2023-03-05T17:39:58.785Z,5.20
2023-03-05T17:42:25.463Z,5.20
2023-03-05T17:44:52.166Z,5.20
2023-03-05T17:47:18.830Z,5.20
2023-03-05T17:49:45.437Z,5.10
2023-03-05T17:52:12.997Z,5.10
2023-03-05T17:54:39.887Z,5.00
2023-03-05T17:57:06.528Z,5.00
2023-03-05T17:59:33.193Z,4.90
2023-03-05T18:02:00.538Z,4.90
2023-03-05T18:04:27.201Z,4.90
2023-03-05T18:06:53.832Z,4.90
2023-03-05T18:09:20.489Z,4.80
2023-03-05T18:11:47.147Z,4.80
2023-03-05T18:14:16.714Z,4.80
2023-03-05T18:16:43.802Z,4.70
2023-03-05T18:19:10.757Z,4.70
2023-03-05T18:21:39.326Z,4.70
2023-03-05T18:24:06.182Z,4.70
2023-03-05T18:26:32.807Z,4.70
2023-03-05T18:28:59.576Z,4.70
2023-03-05T18:31:26.315Z,4.70
2023-03-05T18:33:53.257Z,4.70
2023-03-05T18:36:20.064Z,4.70
2023-03-05T18:38:46.723Z,4.70
2023-03-05T18:41:22.219Z,4.60
2023-03-05T18:43:50.416Z,4.60
2023-03-05T18:46:17.820Z,4.60
2023-03-05T18:48:44.575Z,4.70
2023-03-05T18:51:15.388Z,4.70
2023-03-05T18:53:42.016Z,4.70
2023-03-05T18:56:09.018Z,4.70
2023-03-05T18:58:36.152Z,4.60
2023-03-05T19:01:04.044Z,4.60
2023-03-05T19:03:30.738Z,4.50
2023-03-05T19:05:57.379Z,4.60
2023-03-05T19:08:24.059Z,4.60
2023-03-05T19:10:50.857Z,4.50
2023-03-05T19:13:39.377Z,4.40
2023-03-05T19:16:08.919Z,4.40
2023-03-05T19:18:43.002Z,4.30
2023-03-05T19:21:09.985Z,4.40
2023-03-05T19:23:36.725Z,4.40
2023-03-05T19:26:03.438Z,4.40
2023-03-05T19:28:30.342Z,4.50
2023-03-05T19:30:57.116Z,4.50
2023-03-05T19:33:25.020Z,4.50
2023-03-05T19:35:51.843Z,4.40
2023-03-05T19:38:18.594Z,4.40
2023-03-05T19:40:45.232Z,4.40
2023-03-05T19:43:12.080Z,4.40
2023-03-05T19:45:39.105Z,4.40
2023-03-05T19:48:05.977Z,4.30
2023-03-05T19:50:34.464Z,4.30
2023-03-05T19:53:01.377Z,4.30
2023-03-05T19:55:28.106Z,4.30
2023-03-05T19:57:54.776Z,4.30
2023-03-05T20:00:21.659Z,4.20
2023-03-05T20:02:48.640Z,4.20
2023-03-05T20:05:15.724Z,4.20
2023-03-05T20:07:42.328Z,4.20
2023-03-05T20:10:09.348Z,4.20
2023-03-05T20:12:36.397Z,4.20
2023-03-05T20:15:03.257Z,4.20
2023-03-05T20:17:29.982Z,4.30
2023-03-05T20:19:58.984Z,4.30
2023-03-05T20:22:25.614Z,4.30
2023-03-05T20:24:52.330Z,4.30
2023-03-05T20:27:18.971Z,4.20
2023-03-05T20:29:45.783Z,4.30
2023-03-05T20:32:12.643Z,4.40
2023-03-05T20:34:39.354Z,4.40
2023-03-05T20:37:06.081Z,4.30
2023-03-05T20:39:32.739Z,4.20
2023-03-05T20:42:00.505Z,4.30
2023-03-05T20:44:28.306Z,4.30
2023-03-05T20:47:09.869Z,4.30
2023-03-05T20:49:36.610Z,4.30
2023-03-05T20:52:03.390Z,4.40
2023-03-05T20:54:30.292Z,4.40
2023-03-05T20:56:57.044Z,4.30
2023-03-05T20:59:24.905Z,4.40
2023-03-05T21:01:51.696Z,4.30
2023-03-05T21:04:21.073Z,4.30
2023-03-05T21:06:51.488Z,4.30
2023-03-05T21:09:18.248Z,4.30
2023-03-05T21:11:44.866Z,4.30
2023-03-05T21:14:11.587Z,4.30
2023-03-05T21:16:38.395Z,4.20
2023-03-05T21:19:05.063Z,4.20
2023-03-05T21:21:31.837Z,4.30
2023-03-05T21:23:58.408Z,4.20
2023-03-05T21:26:25.156Z,4.30
2023-03-05T21:28:51.890Z,4.20
2023-03-05T21:31:20.315Z,4.20
2023-03-05T21:33:47.250Z,4.20
2023-03-05T21:36:18.394Z,4.20
2023-03-05T21:38:45.983Z,4.30
2023-03-05T21:41:12.763Z,4.20
2023-03-05T21:43:39.891Z,4.20
2023-03-05T21:46:10.882Z,4.10
2023-03-05T21:48:37.601Z,4.10
2023-03-05T21:51:08.528Z,4.10
2023-03-05T21:53:35.701Z,4.00
2023-03-05T21:56:21.023Z,4.10
2023-03-05T21:58:48.033Z,4.00
2023-03-05T22:01:16.116Z,4.00
2023-03-05T22:03:42.862Z,4.00
2023-03-05T22:06:10.335Z,4.00
2023-03-05T22:08:37.074Z,4.00
2023-03-05T22:11:13.831Z,4.00
2023-03-05T22:13:40.509Z,3.90
2023-03-05T22:16:09.105Z,3.90
2023-03-05T22:18:36.310Z,3.90
2023-03-05T22:21:03.460Z,3.80
2023-03-05T22:23:31.496Z,3.80
2023-03-05T22:26:02.271Z,3.80
2023-03-05T22:28:29.090Z,3.80
2023-03-05T22:30:56.385Z,3.80
2023-03-05T22:33:23.365Z,3.80
2023-03-05T22:35:51.293Z,3.80
2023-03-05T22:38:18.217Z,3.80
2023-03-05T22:40:46.140Z,3.70
2023-03-05T22:43:13.044Z,3.70
2023-03-05T22:45:39.989Z,3.80
2023-03-05T22:48:07.459Z,3.80
2023-03-05T22:50:34.044Z,3.80
2023-03-05T22:53:00.700Z,3.70
2023-03-05T22:55:27.329Z,3.80
2023-03-05T22:57:53.983Z,3.80
2023-03-05T23:00:23.880Z,3.70
2023-03-05T23:02:51.108Z,3.70
2023-03-05T23:05:17.955Z,3.60
2023-03-05T23:07:44.869Z,3.70
2023-03-05T23:10:16.752Z,3.60
2023-03-05T23:12:46.113Z,3.70
2023-03-05T23:15:14.316Z,3.80
2023-03-05T23:17:40.955Z,3.70
2023-03-05T23:20:10.086Z,3.70
2023-03-05T23:22:37.245Z,3.70
2023-03-05T23:25:04.129Z,3.70
2023-03-05T23:27:30.772Z,3.80
2023-03-05T23:30:17.886Z,3.80
2023-03-05T23:32:45.760Z,3.70
2023-03-05T23:35:13.803Z,3.70
2023-03-05T23:37:41.417Z,3.70
2023-03-05T23:40:09.242Z,3.70
2023-03-05T23:42:38.113Z,3.70
2023-03-05T23:45:06.272Z,3.70
2023-03-05T23:47:36.133Z,3.60
2023-03-05T23:50:07.035Z,3.60
2023-03-05T23:52:33.976Z,3.60
2023-03-05T23:55:00.766Z,3.50
2023-03-05T23:57:27.415Z,3.50
2023-03-05T23:59:54.040Z,3.40
